Time;durP1;ratioP1;P1;durP2;ratioP2;P2;SDS_P1;SDS_P2;PMS_P1;PMS_P2;Temp;Humidity;BMP_temperature;BMP_pressure;BME280_temperature;BME280_humidity;BME280_pressure;Samples;Min_cycle;Max_cycle;Signal;HPM_P1;HPM_P2
2024/02/26 05:09:49;;;;;;;0.30;0.30;;;8.00;99.90;;;;;;4956050;29;20326;-68
2024/02/26 05:12:15;;;;;;;0.68;0.65;;;8.00;99.90;;;;;;4956697;29;20195;-66
2024/02/26 05:14:40;;;;;;;0.30;0.30;;;8.00;99.90;;;;;;4956325;29;20642;-67
2024/02/26 05:17:06;;;;;;;0.30;0.30;;;8.00;99.90;;;;;;4940207;29;20231;-67
2024/02/26 05:19:32;;;;;;;0.30;0.30;;;8.00;99.90;;;;;;4940845;29;20240;-67
2024/02/26 05:21:57;;;;;;;0.30;0.30;;;8.10;99.90;;;;;;4960347;29;20173;-68
2024/02/26 05:24:23;;;;;;;0.30;0.30;;;8.10;99.90;;;;;;4960429;29;20181;-68
2024/02/26 05:26:48;;;;;;;0.30;0.30;;;8.10;99.90;;;;;;4957081;29;20299;-67
2024/02/26 05:29:14;;;;;;;0.40;0.40;;;8.10;99.90;;;;;;4955684;29;20248;-68
2024/02/26 05:31:42;;;;;;;0.30;0.30;;;8.10;99.90;;;;;;4955932;29;20223;-67
2024/02/26 05:34:08;;;;;;;0.40;0.40;;;8.10;99.90;;;;;;4955387;29;20309;-67
2024/02/26 05:36:33;;;;;;;0.60;0.43;;;8.00;99.90;;;;;;4953941;29;20283;-67
2024/02/26 05:39:00;;;;;;;0.30;0.30;;;8.10;99.90;;;;;;4937925;29;20535;-68
2024/02/26 05:41:26;;;;;;;0.30;0.30;;;8.10;99.90;;;;;;4955215;29;20184;-67
2024/02/26 05:43:53;;;;;;;0.30;0.30;;;8.10;99.90;;;;;;4955289;29;20203;-69
2024/02/26 05:46:19;;;;;;;0.30;0.30;;;8.10;99.90;;;;;;4955147;29;20211;-67
2024/02/26 05:48:47;;;;;;;0.30;0.30;;;8.10;99.90;;;;;;4938164;29;20185;-68
2024/02/26 05:51:13;;;;;;;0.30;0.30;;;8.10;99.90;;;;;;4955610;29;20201;-67
2024/02/26 05:53:39;;;;;;;0.30;0.30;;;8.10;99.90;;;;;;4954745;29;20164;-67
2024/02/26 05:56:06;;;;;;;0.30;0.30;;;8.10;99.90;;;;;;4954706;29;20256;-67
2024/02/26 05:58:31;;;;;;;0.32;0.32;;;8.10;99.90;;;;;;4954896;29;20519;-67
2024/02/26 06:00:57;;;;;;;0.30;0.30;;;8.10;99.90;;;;;;4954956;29;20176;-68
2024/02/26 06:03:22;;;;;;;0.40;0.40;;;8.10;99.90;;;;;;4954885;29;20228;-68
2024/02/26 06:05:48;;;;;;;0.30;0.30;;;8.10;99.90;;;;;;4954203;29;20228;-66
2024/02/26 06:08:13;;;;;;;0.30;0.30;;;8.10;99.90;;;;;;4954511;29;20210;-68
2024/02/26 06:10:41;;;;;;;0.30;0.30;;;8.10;99.90;;;;;;4954415;29;20201;-67
2024/02/26 06:13:07;;;;;;;0.30;0.30;;;8.10;99.90;;;;;;4949178;29;20177;-67
2024/02/26 06:15:33;;;;;;;0.30;0.30;;;8.10;99.90;;;;;;4943806;29;20636;-68
2024/02/26 06:17:59;;;;;;;0.40;0.40;;;8.10;99.90;;;;;;4935155;29;20173;-67
2024/02/26 06:20:24;;;;;;;0.30;0.30;;;8.10;99.90;;;;;;4958354;28;20188;-71
2024/02/26 06:22:51;;;;;;;0.30;0.30;;;8.00;99.90;;;;;;4973745;28;20172;-70
2024/02/26 06:25:17;;;;;;;0.30;0.30;;;8.00;99.90;;;;;;4956193;28;20188;-71
2024/02/26 06:27:42;;;;;;;0.30;0.30;;;8.00;99.90;;;;;;4972772;28;20336;-72
2024/02/26 06:30:10;;;;;;;0.30;0.30;;;8.00;99.90;;;;;;4971555;28;20196;-72
2024/02/26 06:32:39;;;;;;;0.30;0.30;;;8.00;99.90;;;;;;4956369;28;20253;-73
2024/02/26 06:35:07;;;;;;;0.30;0.30;;;8.00;99.90;;;;;;4952092;28;20173;-68
2024/02/26 06:37:33;;;;;;;0.30;0.30;;;8.00;99.90;;;;;;4955212;29;20196;-68
2024/02/26 06:39:59;;;;;;;0.47;0.47;;;8.00;99.90;;;;;;4956245;28;20207;-67
2024/02/26 06:42:25;;;;;;;0.55;0.55;;;8.00;99.90;;;;;;4937155;29;20501;-67
2024/02/26 06:44:51;;;;;;;0.30;0.30;;;8.00;99.90;;;;;;4938163;29;20193;-67
2024/02/26 06:47:16;;;;;;;0.30;0.30;;;8.10;99.90;;;;;;4972994;28;20200;-66
2024/02/26 06:49:43;;;;;;;0.33;0.33;;;8.10;99.90;;;;;;4965138;28;20719;-66
2024/02/26 06:52:09;;;;;;;0.40;0.40;;;8.10;99.90;;;;;;4938449;29;20183;-66
2024/02/26 06:54:34;;;;;;;0.30;0.30;;;8.10;99.90;;;;;;4921093;29;20177;-67
2024/02/26 06:57:00;;;;;;;0.30;0.30;;;8.20;99.90;;;;;;4937586;29;20189;-67
2024/02/26 06:59:25;;;;;;;0.30;0.30;;;8.10;99.90;;;;;;4921205;29;20180;-66
2024/02/26 07:01:51;;;;;;;0.30;0.30;;;8.20;99.90;;;;;;4938282;29;20173;-67
2024/02/26 07:04:16;;;;;;;0.40;0.40;;;8.20;99.90;;;;;;4937780;29;20173;-67
2024/02/26 07:06:43;;;;;;;0.30;0.30;;;8.30;99.90;;;;;;4937990;29;20189;-68
2024/02/26 07:09:09;;;;;;;0.30;0.30;;;8.30;99.90;;;;;;4938176;29;20197;-67
2024/02/26 07:11:34;;;;;;;0.30;0.30;;;8.40;99.90;;;;;;4942634;29;20201;-67
2024/02/26 07:14:01;;;;;;;0.30;0.30;;;8.30;99.90;;;;;;4946173;29;20270;-67
2024/02/26 07:16:27;;;;;;;0.40;0.40;;;8.40;99.90;;;;;;4942814;28;20197;-67
2024/02/26 07:18:52;;;;;;;0.88;0.63;;;8.40;99.90;;;;;;4967002;28;20594;-68
2024/02/26 07:21:18;;;;;;;0.30;0.30;;;8.40;99.90;;;;;;4957496;28;20189;-67
2024/02/26 07:23:43;;;;;;;0.30;0.30;;;8.40;99.90;;;;;;4956886;29;20504;-68
2024/02/26 07:26:11;;;;;;;0.30;0.30;;;8.50;99.90;;;;;;4967144;28;20204;-66
2024/02/26 07:28:37;;;;;;;0.30;0.30;;;8.50;99.90;;;;;;4952499;28;20481;-67
2024/02/26 07:31:03;;;;;;;0.30;0.30;;;8.50;99.90;;;;;;4951722;28;20204;-66
2024/02/26 07:33:29;;;;;;;0.30;0.30;;;8.40;99.90;;;;;;4956164;29;20591;-68
2024/02/26 07:35:54;;;;;;;0.30;0.30;;;8.50;99.90;;;;;;4956181;28;20289;-69
2024/02/26 07:38:20;;;;;;;0.30;0.30;;;8.50;99.90;;;;;;4948980;28;20422;-67
2024/02/26 07:40:46;;;;;;;0.60;0.60;;;8.60;99.90;;;;;;4950524;28;20547;-68
2024/02/26 07:43:12;;;;;;;0.40;0.40;;;8.50;99.90;;;;;;4966221;28;20171;-69
2024/02/26 07:45:37;;;;;;;0.50;0.50;;;8.60;99.90;;;;;;4952111;28;20201;-70
2024/02/26 07:48:03;;;;;;;0.30;0.20;;;8.60;99.90;;;;;;4937233;29;20178;-70
2024/02/26 07:50:29;;;;;;;0.37;0.37;;;8.60;99.90;;;;;;4942331;28;20212;-69
2024/02/26 07:52:54;;;;;;;0.30;0.30;;;8.60;99.90;;;;;;4966556;28;20224;-69
2024/02/26 07:55:20;;;;;;;0.30;0.30;;;8.70;99.90;;;;;;4942683;28;20181;-69
2024/02/26 07:57:45;;;;;;;0.30;0.30;;;8.80;99.90;;;;;;4935692;29;20719;-70
2024/02/26 08:00:12;;;;;;;0.30;0.30;;;8.90;99.90;;;;;;4954834;28;20659;-69
2024/02/26 08:02:37;;;;;;;0.30;0.28;;;8.80;99.90;;;;;;4956265;28;20259;-68
2024/02/26 08:05:04;;;;;;;0.30;0.30;;;8.80;99.90;;;;;;4955510;28;20589;-69
2024/02/26 08:07:30;;;;;;;0.35;0.35;;;8.90;99.90;;;;;;4956091;29;20204;-69
2024/02/26 08:09:55;;;;;;;0.30;0.30;;;8.90;99.90;;;;;;4956367;29;20278;-68
2024/02/26 08:12:21;;;;;;;0.30;0.30;;;9.00;99.90;;;;;;4955357;28;20609;-69
2024/02/26 08:14:46;;;;;;;0.30;0.30;;;9.00;99.90;;;;;;4936546;29;20170;-70
2024/02/26 08:17:12;;;;;;;0.30;0.30;;;9.10;99.90;;;;;;4944118;28;20753;-70
2024/02/26 08:19:38;;;;;;;0.40;0.40;;;9.20;99.90;;;;;;4954307;28;20213;-68
2024/02/26 08:22:04;;;;;;;0.30;0.30;;;9.20;99.90;;;;;;4971938;28;20169;-69
2024/02/26 08:24:29;;;;;;;0.30;0.30;;;9.20;99.90;;;;;;4969653;28;20224;-68
2024/02/26 08:26:55;;;;;;;0.30;0.30;;;9.20;99.90;;;;;;4953725;28;20223;-67
2024/02/26 08:29:21;;;;;;;0.37;0.37;;;9.20;99.90;;;;;;4938132;29;20192;-66
2024/02/26 08:31:46;;;;;;;0.30;0.30;;;9.20;99.90;;;;;;4949248;28;20212;-66
2024/02/26 08:34:12;;;;;;;0.40;0.40;;;9.10;99.90;;;;;;4936391;29;20630;-66
2024/02/26 08:36:37;;;;;;;0.30;0.30;;;9.10;99.90;;;;;;4936129;29;20604;-67
2024/02/26 08:39:03;;;;;;;0.40;0.40;;;9.10;99.90;;;;;;4928473;29;20235;-66
2024/02/26 08:41:29;;;;;;;0.30;0.30;;;8.90;99.90;;;;;;4966685;28;20547;-68
2024/02/26 08:43:55;;;;;;;0.40;0.40;;;8.80;99.90;;;;;;4967752;28;20941;-68
2024/02/26 08:46:20;;;;;;;0.33;0.33;;;8.70;99.90;;;;;;4954684;28;20204;-67
2024/02/26 08:48:46;;;;;;;0.30;0.30;;;8.70;99.90;;;;;;4955415;28;20180;-63
2024/02/26 08:51:12;;;;;;;0.30;0.30;;;8.60;99.90;;;;;;4937707;29;20208;-67
2024/02/26 08:53:38;;;;;;;0.30;0.30;;;8.70;99.90;;;;;;4969900;28;20538;-68
2024/02/26 08:56:05;;;;;;;0.30;0.30;;;8.70;99.90;;;;;;4967659;28;20211;-66
2024/02/26 08:58:31;;;;;;;0.30;0.30;;;8.80;99.90;;;;;;4969450;28;20789;-65
2024/02/26 09:00:56;;;;;;;0.40;0.40;;;8.70;99.90;;;;;;4954604;28;20270;-67
2024/02/26 09:03:22;;;;;;;0.30;0.30;;;8.70;99.90;;;;;;4953966;28;21184;-65
2024/02/26 09:05:48;;;;;;;0.30;0.30;;;8.70;99.90;;;;;;4959782;28;20255;-65
2024/02/26 09:08:14;;;;;;;0.30;0.30;;;8.70;99.90;;;;;;4965639;28;20188;-64
2024/02/26 09:10:40;;;;;;;0.30;0.30;;;8.80;99.90;;;;;;4954533;28;20566;-68
2024/02/26 09:13:07;;;;;;;0.63;0.63;;;8.90;99.90;;;;;;4937828;29;20201;-66
2024/02/26 09:15:33;;;;;;;0.37;0.37;;;9.00;99.90;;;;;;4954256;28;20246;-67
2024/02/26 09:17:58;;;;;;;0.30;0.30;;;9.10;99.90;;;;;;4954581;29;20195;-66
2024/02/26 09:20:24;;;;;;;0.30;0.30;;;9.20;99.90;;;;;;4954783;29;20209;-66
2024/02/26 09:22:50;;;;;;;0.30;0.30;;;9.30;99.90;;;;;;4958108;28;20230;-66
2024/02/26 09:25:17;;;;;;;0.30;0.30;;;9.40;99.90;;;;;;4940620;29;20184;-67
2024/02/26 09:27:43;;;;;;;0.30;0.30;;;9.40;99.90;;;;;;4947059;28;20599;-67
2024/02/26 09:30:10;;;;;;;0.30;0.30;;;9.60;99.90;;;;;;4974051;28;20195;-66
2024/02/26 09:32:36;;;;;;;0.40;0.40;;;9.60;99.90;;;;;;4935724;29;20163;-65
2024/02/26 09:35:02;;;;;;;0.40;0.40;;;9.70;99.90;;;;;;4935225;29;20390;-66
2024/02/26 09:37:27;;;;;;;0.30;0.30;;;9.80;99.90;;;;;;4953435;28;20189;-67
2024/02/26 09:39:53;;;;;;;0.30;0.30;;;9.90;99.90;;;;;;4958975;28;20378;-66
2024/02/26 09:42:19;;;;;;;2.10;1.80;;;10.00;99.90;;;;;;4974024;28;20188;-66
2024/02/26 09:44:45;;;;;;;0.40;0.40;;;10.20;99.90;;;;;;4973659;28;20170;-66
2024/02/26 09:47:20;;;;;;;0.30;0.30;;;10.20;99.90;;;;;;4955233;28;20420;-66
2024/02/26 09:49:47;;;;;;;0.30;0.30;;;10.40;99.90;;;;;;4972239;28;20838;-64
2024/02/26 09:52:15;;;;;;;0.30;0.30;;;10.50;99.90;;;;;;4951285;28;20418;-68
2024/02/26 09:54:42;;;;;;;0.30;0.20;;;10.60;99.90;;;;;;4954135;29;20417;-66
2024/02/26 09:57:14;;;;;;;0.30;0.30;;;10.70;99.90;;;;;;4955255;28;20497;-65
2024/02/26 09:59:41;;;;;;;0.30;0.30;;;10.80;99.90;;;;;;4967774;28;20416;-65
2024/02/26 10:02:13;;;;;;;0.30;0.30;;;10.80;99.90;;;;;;4950306;28;20392;-68
2024/02/26 10:04:42;;;;;;;0.30;0.30;;;10.70;99.90;;;;;;4955925;28;20457;-67
2024/02/26 10:07:12;;;;;;;0.30;0.30;;;10.60;99.90;;;;;;4972570;28;20426;-67
2024/02/26 10:09:39;;;;;;;0.30;0.30;;;10.40;99.90;;;;;;4972429;28;20236;-66
2024/02/26 10:12:07;;;;;;;0.30;0.30;;;10.30;99.90;;;;;;4961878;28;20181;-67
2024/02/26 10:14:32;;;;;;;0.30;0.30;;;10.20;99.90;;;;;;4976043;28;21014;-67
2024/02/26 10:17:01;;;;;;;0.30;0.30;;;10.20;99.90;;;;;;4957555;28;20212;-67
2024/02/26 10:19:28;;;;;;;0.30;0.30;;;10.30;99.90;;;;;;4957933;29;20171;-66
2024/02/26 10:21:58;;;;;;;0.30;0.30;;;10.60;99.90;;;;;;4963926;28;20437;-65
2024/02/26 10:24:25;;;;;;;0.30;0.30;;;10.90;99.90;;;;;;4955212;28;20423;-69
2024/02/26 10:26:52;;;;;;;0.30;0.30;;;11.30;99.90;;;;;;4950918;28;20442;-67
2024/02/26 10:29:19;;;;;;;0.30;0.30;;;11.80;99.90;;;;;;4951108;29;20443;-67
2024/02/26 10:31:45;;;;;;;0.30;0.30;;;12.10;99.90;;;;;;4956613;28;20475;-67
2024/02/26 10:34:11;;;;;;;0.30;0.30;;;12.40;99.90;;;;;;4957886;29;20394;-66
2024/02/26 10:36:36;;;;;;;0.30;0.30;;;12.70;99.20;;;;;;4949750;28;20423;-68
2024/02/26 10:39:05;;;;;;;0.30;0.30;;;13.00;98.60;;;;;;4952624;29;20182;-67
2024/02/26 10:41:32;;;;;;;0.30;0.30;;;13.20;98.60;;;;;;4957725;28;20579;-63
2024/02/26 10:43:58;;;;;;;0.30;0.20;;;13.60;97.30;;;;;;4955454;29;20404;-64
2024/02/26 10:46:43;;;;;;;0.30;0.30;;;13.90;96.70;;;;;;4955253;28;21044;-69
2024/02/26 10:49:18;;;;;;;0.33;0.33;;;14.30;95.40;;;;;;4956845;29;20291;-66
2024/02/26 10:51:45;;;;;;;0.30;0.20;;;14.70;95.90;;;;;;4956951;29;20445;-67
2024/02/26 10:54:15;;;;;;;0.30;0.30;;;15.00;94.20;;;;;;4957367;28;20418;-66
2024/02/26 10:56:43;;;;;;;0.30;0.30;;;15.00;93.10;;;;;;4976453;28;21099;-65
2024/02/26 10:59:12;;;;;;;0.30;0.30;;;14.80;92.70;;;;;;4946000;28;20399;-69
2024/02/26 11:01:40;;;;;;;0.30;0.27;;;14.80;93.00;;;;;;4936118;29;20814;-66
2024/02/26 11:04:08;;;;;;;0.30;0.30;;;14.80;93.40;;;;;;4955904;29;20486;-66
2024/02/26 11:06:34;;;;;;;0.30;0.30;;;14.80;93.10;;;;;;4956667;29;20453;-65
2024/02/26 11:09:02;;;;;;;0.50;0.30;;;14.70;93.00;;;;;;4939396;29;20918;-64
2024/02/26 11:11:28;;;;;;;1.33;0.83;;;14.50;92.40;;;;;;4956826;28;20966;-67
2024/02/26 11:13:55;;;;;;;0.30;0.30;;;14.40;92.50;;;;;;4952117;29;20849;-66
2024/02/26 11:16:22;;;;;;;0.30;0.30;;;14.30;92.80;;;;;;4949003;28;20413;-66
2024/02/26 11:18:49;;;;;;;0.30;0.20;;;14.30;92.40;;;;;;4952801;28;20410;-66
2024/02/26 11:21:19;;;;;;;0.30;0.30;;;14.30;93.00;;;;;;4970335;28;20425;-65
2024/02/26 11:23:46;;;;;;;0.30;0.30;;;14.50;92.90;;;;;;4956096;28;20397;-64
2024/02/26 11:26:16;;;;;;;0.30;0.23;;;14.80;92.40;;;;;;4951667;28;20448;-64
2024/02/26 11:28:44;;;;;;;0.30;0.30;;;15.00;92.10;;;;;;4943079;28;20428;-65
2024/02/26 11:31:10;;;;;;;0.30;0.20;;;15.00;91.80;;;;;;4947652;28;20463;-67
2024/02/26 11:33:36;;;;;;;0.30;0.30;;;14.90;91.70;;;;;;4956657;29;20416;-66
2024/02/26 11:36:07;;;;;;;0.30;0.30;;;14.80;92.00;;;;;;4955958;28;20434;-68
2024/02/26 11:38:33;;;;;;;0.30;0.30;;;14.60;92.40;;;;;;4956602;29;20178;-68
2024/02/26 11:40:59;;;;;;;0.30;0.30;;;14.50;92.50;;;;;;4956460;28;20425;-68
2024/02/26 11:43:49;;;;;;;0.30;0.30;;;14.40;92.60;;;;;;4956484;29;20928;-66
2024/02/26 11:46:32;;;;;;;0.30;0.20;;;14.40;92.80;;;;;;4956059;28;20450;-68
2024/02/26 11:49:23;;;;;;;0.30;0.20;;;14.50;92.50;;;;;;4937389;29;20509;-65
2024/02/26 11:52:03;;;;;;;0.30;0.20;;;14.60;92.40;;;;;;4947470;28;20471;-65
2024/02/26 11:54:50;;;;;;;0.30;0.30;;;14.70;92.60;;;;;;4946459;29;20782;-64
2024/02/26 11:57:24;;;;;;;0.30;0.20;;;14.80;91.80;;;;;;4937839;29;20425;-65
2024/02/26 11:59:51;;;;;;;0.30;0.20;;;14.80;91.70;;;;;;4939126;28;20419;-64
2024/02/26 12:02:38;;;;;;;0.30;0.20;;;14.80;91.70;;;;;;4954071;28;20426;-68
2024/02/26 12:05:12;;;;;;;0.30;0.30;;;14.70;91.50;;;;;;4936844;29;20456;-66
2024/02/26 12:07:40;;;;;;;0.30;0.20;;;14.80;91.60;;;;;;4951008;28;20498;-65
2024/02/26 12:10:34;;;;;;;0.30;0.30;;;14.90;91.30;;;;;;4938348;28;20470;-68
2024/02/26 12:13:05;;;;;;;0.30;0.30;;;15.00;91.20;;;;;;4952709;29;20512;-66
2024/02/26 12:15:37;;;;;;;0.30;0.20;;;15.00;90.70;;;;;;4940352;28;20928;-67
2024/02/26 12:18:07;;;;;;;0.30;0.20;;;15.00;90.10;;;;;;4955261;28;20899;-69
2024/02/26 12:20:34;;;;;;;0.30;0.20;;;15.10;90.20;;;;;;4955451;28;20426;-66
2024/02/26 12:23:02;;;;;;;0.30;0.20;;;15.20;90.00;;;;;;4948120;28;20655;-68
2024/02/26 12:25:29;;;;;;;0.30;0.30;;;15.30;90.40;;;;;;4938425;29;20796;-66
2024/02/26 12:27:55;;;;;;;0.30;0.20;;;15.30;90.50;;;;;;4955072;29;20443;-67
2024/02/26 12:30:21;;;;;;;0.30;0.30;;;15.40;88.40;;;;;;4937307;29;20946;-65
2024/02/26 12:32:52;;;;;;;0.30;0.20;;;15.40;89.20;;;;;;4955327;29;20200;-67
2024/02/26 12:35:18;;;;;;;0.30;0.30;;;15.40;89.70;;;;;;4952473;28;20393;-66
2024/02/26 12:37:44;;;;;;;0.30;0.30;;;15.50;89.90;;;;;;4953622;29;20427;-66
2024/02/26 12:40:11;;;;;;;0.30;0.20;;;15.60;89.90;;;;;;4935710;29;20798;-67
2024/02/26 12:42:41;;;;;;;0.30;0.30;;;15.60;88.30;;;;;;4918616;29;20420;-66
2024/02/26 12:45:11;;;;;;;0.30;0.30;;;15.50;88.60;;;;;;4936917;29;20459;-66
2024/02/26 12:47:41;;;;;;;0.30;0.30;;;15.50;89.50;;;;;;4935719;29;20406;-64
2024/02/26 12:50:08;;;;;;;0.30;0.30;;;15.50;89.10;;;;;;4947893;28;20458;-64
2024/02/26 12:52:45;;;;;;;0.50;0.50;;;15.40;89.20;;;;;;4943015;29;20416;-64
2024/02/26 12:55:15;;;;;;;0.30;0.20;;;15.30;89.30;;;;;;4952938;29;20445;-63
2024/02/26 12:57:43;;;;;;;0.30;0.20;;;15.40;89.90;;;;;;4953462;29;20403;-64
2024/02/26 13:00:12;;;;;;;0.30;0.30;;;15.50;89.60;;;;;;4953117;29;20394;-65
2024/02/26 13:02:39;;;;;;;0.30;0.20;;;15.60;88.90;;;;;;4953355;29;20389;-63
2024/02/26 13:05:07;;;;;;;0.30;0.30;;;15.70;88.70;;;;;;4954594;29;20830;-64
2024/02/26 13:07:34;;;;;;;0.30;0.30;;;15.80;88.80;;;;;;4955445;29;20810;-64
2024/02/26 13:10:00;;;;;;;0.30;0.30;;;15.80;88.50;;;;;;4955161;29;20467;-64
2024/02/26 13:12:29;;;;;;;0.30;0.30;;;15.90;89.20;;;;;;4956494;29;20865;-63
2024/02/26 13:15:02;;;;;;;0.30;0.30;;;16.00;88.90;;;;;;4953303;29;20408;-64
2024/02/26 13:17:31;;;;;;;0.30;0.20;;;15.90;88.00;;;;;;4954651;29;20420;-64
2024/02/26 13:19:57;;;;;;;0.30;0.20;;;15.90;88.80;;;;;;4954375;29;20432;-64
2024/02/26 13:22:23;;;;;;;0.30;0.30;;;15.70;89.20;;;;;;4955061;29;20450;-64
2024/02/26 13:24:59;;;;;;;0.30;0.20;;;15.70;90.00;;;;;;4954296;29;20257;-63
2024/02/26 13:27:25;;;;;;;0.30;0.20;;;15.60;90.20;;;;;;4954948;29;20413;-63
2024/02/26 13:30:11;;;;;;;0.30;0.30;;;15.60;90.40;;;;;;4954737;29;20390;-63
2024/02/26 13:32:38;;;;;;;0.30;0.23;;;15.60;90.60;;;;;;4955157;29;20421;-63
2024/02/26 13:35:07;;;;;;;0.77;0.77;;;15.70;90.80;;;;;;4954274;29;20531;-63
2024/02/26 13:37:33;;;;;;;0.30;0.20;;;15.60;90.80;;;;;;4954729;29;20423;-63
2024/02/26 13:39:59;;;;;;;0.30;0.30;;;15.60;91.20;;;;;;4954693;29;20438;-63
2024/02/26 13:42:25;;;;;;;0.30;0.30;;;15.60;91.20;;;;;;4954855;29;20482;-63
2024/02/26 13:44:50;;;;;;;0.30;0.30;;;15.60;90.70;;;;;;4954775;28;20179;-64
2024/02/26 13:47:16;;;;;;;0.30;0.30;;;15.70;90.80;;;;;;4959760;29;20546;-65
2024/02/26 13:49:41;;;;;;;0.30;0.30;;;15.60;90.70;;;;;;4959899;29;20179;-65
2024/02/26 13:52:07;;;;;;;0.30;0.30;;;15.60;90.70;;;;;;4958792;29;20617;-64
2024/02/26 13:54:33;;;;;;;0.30;0.20;;;15.60;90.90;;;;;;4958471;29;20179;-64
2024/02/26 13:56:59;;;;;;;0.30;0.20;;;15.60;90.80;;;;;;4958926;29;20479;-64
2024/02/26 13:59:24;;;;;;;0.30;0.30;;;15.60;90.50;;;;;;4958701;29;20405;-66
2024/02/26 14:01:50;;;;;;;0.30;0.20;;;15.70;90.20;;;;;;4958753;29;20180;-65
2024/02/26 14:04:16;;;;;;;0.30;0.20;;;15.70;90.60;;;;;;4958162;29;20247;-68
2024/02/26 14:06:42;;;;;;;0.53;0.40;;;15.70;90.30;;;;;;4958415;29;20211;-67
2024/02/26 14:09:08;;;;;;;0.30;0.30;;;15.90;90.40;;;;;;4958258;29;20417;-66
2024/02/26 14:11:34;;;;;;;0.30;0.20;;;15.90;90.20;;;;;;4941056;29;20213;-68
2024/02/26 14:13:59;;;;;;;0.30;0.20;;;16.00;89.90;;;;;;4958392;29;20181;-68
2024/02/26 14:16:25;;;;;;;0.30;0.30;;;16.10;90.00;;;;;;4958155;29;20506;-65
2024/02/26 14:18:51;;;;;;;0.30;0.30;;;16.20;89.00;;;;;;4958408;29;20223;-65
2024/02/26 14:21:16;;;;;;;0.30;0.20;;;16.20;89.10;;;;;;4958499;29;20175;-64
2024/02/26 14:23:44;;;;;;;0.30;0.30;;;16.10;89.20;;;;;;4958187;29;20179;-66
2024/02/26 14:26:10;;;;;;;0.30;0.30;;;16.00;89.00;;;;;;4940952;29;20206;-65
2024/02/26 14:28:35;;;;;;;0.30;0.20;;;15.90;88.80;;;;;;4958114;29;20501;-67
2024/02/26 14:31:01;;;;;;;0.30;0.30;;;15.80;89.10;;;;;;4958247;29;20897;-63
2024/02/26 14:33:26;;;;;;;0.30;0.20;;;15.60;90.00;;;;;;4958285;29;20670;-64
2024/02/26 14:35:52;;;;;;;0.30;0.27;;;15.50;90.50;;;;;;4957522;29;20544;-67
2024/02/26 14:38:17;;;;;;;0.30;0.20;;;15.40;90.30;;;;;;4958059;29;20245;-64
2024/02/26 14:40:43;;;;;;;0.30;0.30;;;15.30;90.60;;;;;;4957564;29;20181;-64
2024/02/26 14:43:09;;;;;;;0.30;0.30;;;15.20;90.60;;;;;;4958000;29;20181;-65
2024/02/26 14:45:35;;;;;;;0.30;0.30;;;15.20;90.30;;;;;;4940614;29;20190;-65
2024/02/26 14:48:01;;;;;;;0.30;0.23;;;15.10;90.10;;;;;;4958000;29;20551;-63
2024/02/26 14:50:26;;;;;;;0.30;0.20;;;15.10;89.60;;;;;;4957942;29;20201;-63
2024/02/26 14:52:52;;;;;;;0.30;0.30;;;15.10;90.30;;;;;;4957955;29;20631;-67
2024/02/26 14:55:17;;;;;;;0.30;0.30;;;15.10;91.00;;;;;;4958153;29;20188;-66
2024/02/26 14:57:43;;;;;;;0.30;0.30;;;15.00;91.30;;;;;;4957817;28;20179;-64
2024/02/26 15:00:09;;;;;;;0.30;0.20;;;14.90;91.60;;;;;;4959945;29;20169;-66
2024/02/26 15:02:35;;;;;;;0.30;0.20;;;14.90;91.70;;;;;;4960021;29;20169;-63
2024/02/26 15:05:01;;;;;;;0.30;0.20;;;14.90;91.70;;;;;;4958439;29;20763;-65
2024/02/26 15:07:26;;;;;;;0.30;0.30;;;14.90;91.80;;;;;;4957338;29;20200;-60
2024/02/26 15:09:56;;;;;;;0.30;0.30;;;14.80;91.70;;;;;;4956689;29;20329;-66
2024/02/26 15:12:22;;;;;;;0.30;0.20;;;14.80;91.60;;;;;;4957544;29;20173;-61
2024/02/26 15:14:48;;;;;;;0.30;0.30;;;14.80;91.70;;;;;;4957130;29;20896;-60
2024/02/26 15:17:13;;;;;;;0.30;0.20;;;14.80;91.70;;;;;;4957856;29;20203;-60
2024/02/26 15:19:39;;;;;;;0.30;0.30;;;14.70;91.70;;;;;;4957571;29;20196;-61
2024/02/26 15:22:05;;;;;;;0.30;0.30;;;14.70;91.70;;;;;;4957150;29;20180;-61
2024/02/26 15:24:30;;;;;;;0.30;0.30;;;14.70;91.60;;;;;;4956944;29;20196;-61
2024/02/26 15:26:57;;;;;;;0.30;0.30;;;14.70;91.90;;;;;;4957033;29;20208;-60
2024/02/26 15:29:22;;;;;;;0.30;0.30;;;14.70;91.70;;;;;;4940097;29;20173;-60
2024/02/26 15:31:48;;;;;;;0.30;0.30;;;14.60;91.90;;;;;;4957504;29;20477;-61
2024/02/26 15:34:14;;;;;;;0.30;0.30;;;14.60;92.00;;;;;;4957215;29;20228;-62
2024/02/26 15:36:41;;;;;;;0.30;0.30;;;14.50;92.10;;;;;;4956779;29;20318;-61
2024/02/26 15:39:07;;;;;;;0.30;0.30;;;14.50;92.00;;;;;;4956583;29;20212;-61
2024/02/26 15:41:33;;;;;;;0.30;0.30;;;14.40;92.30;;;;;;4957167;29;20432;-62
2024/02/26 15:44:00;;;;;;;0.30;0.30;;;14.30;91.30;;;;;;4939472;29;20395;-61
2024/02/26 15:46:26;;;;;;;0.30;0.20;;;14.30;91.40;;;;;;4957390;29;20287;-65
2024/02/26 15:48:52;;;;;;;0.30;0.30;;;14.30;91.70;;;;;;4958690;29;20445;-63
2024/02/26 15:51:22;;;;;;;0.30;0.30;;;14.20;91.80;;;;;;4958570;29;20587;-61
2024/02/26 15:53:48;;;;;;;0.33;0.33;;;14.20;92.20;;;;;;4941833;29;20423;-63
2024/02/26 15:56:14;;;;;;;0.30;0.30;;;14.10;92.50;;;;;;4956657;29;20414;-62
2024/02/26 15:58:40;;;;;;;0.30;0.30;;;14.10;92.80;;;;;;4939539;29;20424;-62
2024/02/26 16:01:06;;;;;;;0.30;0.30;;;14.00;93.00;;;;;;4957047;29;20232;-60
2024/02/26 16:03:37;;;;;;;0.30;0.30;;;14.00;93.20;;;;;;4956819;29;20412;-62
2024/02/26 16:06:03;;;;;;;0.40;0.40;;;14.00;93.10;;;;;;4957258;29;20201;-63
2024/02/26 16:08:29;;;;;;;0.30;0.30;;;13.90;93.30;;;;;;4957380;28;20415;-63
2024/02/26 16:10:55;;;;;;;0.30;0.20;;;13.90;93.30;;;;;;4958154;29;20841;-62
2024/02/26 16:13:20;;;;;;;0.40;0.40;;;13.80;93.40;;;;;;4958170;29;20177;-64
2024/02/26 16:16:01;;;;;;;0.90;0.77;;;13.70;93.40;;;;;;4957131;29;20229;-63
2024/02/26 16:18:26;;;;;;;0.30;0.30;;;13.70;93.70;;;;;;4956211;29;20190;-63
2024/02/26 16:20:54;;;;;;;0.30;0.30;;;13.70;93.80;;;;;;4956444;28;20495;-63
2024/02/26 16:23:22;;;;;;;0.30;0.30;;;13.60;93.70;;;;;;4949303;28;20267;-61
2024/02/26 16:25:47;;;;;;;0.30;0.20;;;13.50;93.30;;;;;;4956211;29;20781;-62
2024/02/26 16:28:14;;;;;;;0.30;0.30;;;13.50;93.30;;;;;;4944464;28;20417;-63
2024/02/26 16:30:39;;;;;;;0.30;0.30;;;13.40;92.90;;;;;;4975491;28;20208;-61
2024/02/26 16:33:05;;;;;;;0.30;0.30;;;13.30;92.60;;;;;;4975355;28;20415;-62
2024/02/26 16:35:32;;;;;;;0.30;0.30;;;13.20;92.40;;;;;;4962723;28;20228;-62
2024/02/26 16:38:00;;;;;;;0.30;0.30;;;13.10;92.20;;;;;;4956209;28;20187;-62
2024/02/26 16:40:26;;;;;;;0.30;0.30;;;13.00;92.10;;;;;;4964782;28;20423;-64
2024/02/26 16:42:51;;;;;;;0.30;0.30;;;12.90;91.90;;;;;;4964073;28;20389;-64
2024/02/26 16:45:17;;;;;;;0.30;0.30;;;12.90;92.10;;;;;;4964897;28;20191;-63
2024/02/26 16:47:43;;;;;;;0.40;0.40;;;12.80;92.00;;;;;;4963182;28;20175;-63
2024/02/26 16:50:12;;;;;;;0.30;0.30;;;12.80;91.80;;;;;;4955283;29;20211;-62
2024/02/26 16:52:38;;;;;;;0.30;0.20;;;12.70;91.80;;;;;;4952711;29;20428;-61
2024/02/26 16:55:04;;;;;;;0.30;0.30;;;12.70;91.60;;;;;;4962280;28;20821;-62
2024/02/26 16:57:30;;;;;;;0.30;0.30;;;12.60;91.80;;;;;;4974606;28;20246;-60
2024/02/26 16:59:55;;;;;;;0.30;0.30;;;12.60;91.90;;;;;;4954732;28;20486;-63
2024/02/26 17:02:21;;;;;;;0.30;0.30;;;12.50;92.00;;;;;;4955341;29;20179;-62
2024/02/26 17:04:47;;;;;;;0.40;0.40;;;12.50;92.10;;;;;;4955155;29;20327;-63
2024/02/26 17:07:16;;;;;;;0.30;0.30;;;12.50;92.10;;;;;;4955505;29;20188;-63
2024/02/26 17:09:41;;;;;;;0.30;0.30;;;12.40;92.20;;;;;;4955275;29;20731;-63
2024/02/26 17:12:09;;;;;;;0.30;0.30;;;12.30;92.20;;;;;;4955632;29;20515;-63
2024/02/26 17:14:36;;;;;;;0.40;0.40;;;12.30;92.50;;;;;;4954682;29;20176;-63
2024/02/26 17:17:03;;;;;;;0.30;0.30;;;12.30;92.60;;;;;;4954899;29;20435;-63
2024/02/26 17:19:29;;;;;;;0.30;0.30;;;12.20;92.80;;;;;;4955065;28;20423;-65
2024/02/26 17:21:54;;;;;;;0.30;0.23;;;12.20;92.90;;;;;;4954915;29;20407;-63
2024/02/26 17:24:20;;;;;;;0.30;0.30;;;12.20;93.00;;;;;;4954449;28;20662;-68
2024/02/26 17:26:46;;;;;;;0.30;0.30;;;12.10;93.10;;;;;;4955067;29;20195;-63
2024/02/26 17:29:11;;;;;;;0.30;0.30;;;12.10;93.20;;;;;;4953829;29;20172;-63
2024/02/26 17:31:41;;;;;;;0.30;0.30;;;12.10;93.30;;;;;;4955049;29;20207;-63
2024/02/26 17:34:09;;;;;;;0.30;0.20;;;12.00;93.40;;;;;;4955801;28;20620;-62
2024/02/26 17:36:35;;;;;;;0.30;0.30;;;12.00;93.50;;;;;;4964430;28;20450;-64
2024/02/26 17:39:01;;;;;;;0.30;0.30;;;12.00;93.80;;;;;;4963032;28;20412;-64
2024/02/26 17:41:27;;;;;;;0.30;0.30;;;12.00;94.10;;;;;;4967369;28;20481;-64
2024/02/26 17:43:52;;;;;;;0.30;0.30;;;12.00;93.90;;;;;;4970644;28;20187;-63
2024/02/26 17:46:18;;;;;;;0.30;0.30;;;11.90;94.00;;;;;;4969353;28;20467;-66
2024/02/26 17:48:44;;;;;;;0.30;0.30;;;11.90;94.10;;;;;;4937024;29;20502;-64
2024/02/26 17:51:11;;;;;;;0.67;0.47;;;11.90;94.30;;;;;;4938256;29;20202;-66
2024/02/26 17:53:39;;;;;;;0.30;0.30;;;11.90;94.50;;;;;;4954286;29;20418;-64
2024/02/26 17:56:07;;;;;;;0.33;0.33;;;11.90;94.60;;;;;;4954201;29;20841;-64
2024/02/26 17:58:33;;;;;;;0.30;0.30;;;11.80;94.80;;;;;;4954606;29;20408;-63